sensor_id;sensor_type;location;lat;lon;timestamp;P1;durP1;ratioP1;P2;durP2;ratioP2
74483;SDS011;62942;52.462;10.846;2023-05-07T00:00:47;10.2;;;14;;
74483;SDS011;62942;52.462;10.846;2023-05-07T00:01:47;10;;;13;;
74483;SDS011;62942;52.462;10.846;2023-05-07T00:02:47;9.9;;;14.5;;
74483;SDS011;62942;52.462;10.846;2023-05-07T00:03:57;9.8;;;13.1;;
74483;SDS011;62942;52.462;10.846;2023-05-07T00:05:07;9.9;;;12.8;;
74483;SDS011;62942;52.462;10.846;2023-05-07T00:06:06;10.1;;;14.6;;
74483;SDS011;62942;52.462;10.846;2023-05-07T00:07:06;10.3;;;13.4;;
74483;SDS011;62942;52.462;10.846;2023-05-07T00:08:06;9.9;;;13.7;;
74483;SDS011;62942;52.462;10.846;2023-05-07T00:09:06;10;;;13.1;;
74483;SDS011;62942;52.462;10.846;2023-05-07T00:10:07;9.9;;;15.1;;
74483;SDS011;62942;52.462;10.846;2023-05-07T00:11:16;10.3;;;13.2;;
74483;SDS011;62942;52.462;10.846;2023-05-07T00:12:16;10;;;13.2;;
74483;SDS011;62942;52.462;10.846;2023-05-07T00:13:16;9.5;;;13.2;;
74483;SDS011;62942;52.462;10.846;2023-05-07T00:14:16;9.6;;;12.5;;
74483;SDS011;62942;52.462;10.846;2023-05-07T00:15:27;9.7;;;13.2;;
74483;SDS011;62942;52.462;10.846;2023-05-07T00:16:27;9.7;;;13.2;;
74483;SDS011;62942;52.462;10.846;2023-05-07T00:17:27;9.7;;;13.5;;
74483;SDS011;62942;52.462;10.846;2023-05-07T00:18:36;9.5;;;12.2;;
74483;SDS011;62942;52.462;10.846;2023-05-07T00:19:37;9.4;;;12;;
74483;SDS011;62942;52.462;10.846;2023-05-07T00:20:46;9.4;;;13.1;;
74483;SDS011;62942;52.462;10.846;2023-05-07T00:21:56;9.3;;;11.9;;
74483;SDS011;62942;52.462;10.846;2023-05-07T00:22:57;9.8;;;13.2;;
74483;SDS011;62942;52.462;10.846;2023-05-07T00:23:57;9.4;;;13.1;;
74483;SDS011;62942;52.462;10.846;2023-05-07T00:24:56;9.8;;;12.8;;
74483;SDS011;62942;52.462;10.846;2023-05-07T00:26:07;9.7;;;12.7;;
74483;SDS011;62942;52.462;10.846;2023-05-07T00:27:16;9.2;;;11.3;;
74483;SDS011;62942;52.462;10.846;2023-05-07T00:28:26;9.5;;;12.4;;
74483;SDS011;62942;52.462;10.846;2023-05-07T00:29:36;9.6;;;13.4;;
74483;SDS011;62942;52.462;10.846;2023-05-07T00:30:46;9.6;;;12.4;;
74483;SDS011;62942;52.462;10.846;2023-05-07T00:31:56;9.8;;;13.4;;
74483;SDS011;62942;52.462;10.846;2023-05-07T00:33:06;9.8;;;13;;
74483;SDS011;62942;52.462;10.846;2023-05-07T00:34:16;9.3;;;13.9;;
74483;SDS011;62942;52.462;10.846;2023-05-07T00:35:16;9.7;;;14.2;;
74483;SDS011;62942;52.462;10.846;2023-05-07T00:36:26;10.1;;;13.9;;
74483;SDS011;62942;52.462;10.846;2023-05-07T00:37:26;10.1;;;13.7;;
74483;SDS011;62942;52.462;10.846;2023-05-07T00:38:36;9.8;;;12.9;;
74483;SDS011;62942;52.462;10.846;2023-05-07T00:39:36;10;;;14.1;;
74483;SDS011;62942;52.462;10.846;2023-05-07T00:40:37;10.4;;;14.4;;
74483;SDS011;62942;52.462;10.846;2023-05-07T00:41:37;10.3;;;14.2;;
74483;SDS011;62942;52.462;10.846;2023-05-07T00:42:47;10.6;;;13.6;;
74483;SDS011;62942;52.462;10.846;2023-05-07T00:43:56;10.3;;;13.6;;
74483;SDS011;62942;52.462;10.846;2023-05-07T00:44:56;10.6;;;14.2;;
74483;SDS011;62942;52.462;10.846;2023-05-07T00:45:56;10.4;;;13.2;;
74483;SDS011;62942;52.462;10.846;2023-05-07T00:47:06;10.5;;;14.1;;
74483;SDS011;62942;52.462;10.846;2023-05-07T00:48:16;11;;;14.2;;
74483;SDS011;62942;52.462;10.846;2023-05-07T00:49:16;10.6;;;14.4;;
74483;SDS011;62942;52.462;10.846;2023-05-07T00:50:26;11;;;14.6;;
74483;SDS011;62942;52.462;10.846;2023-05-07T00:51:36;10.3;;;13.4;;
74483;SDS011;62942;52.462;10.846;2023-05-07T00:52:46;10.6;;;14.6;;
74483;SDS011;62942;52.462;10.846;2023-05-07T00:53:46;10.6;;;14.1;;
74483;SDS011;62942;52.462;10.846;2023-05-07T00:54:46;10.9;;;15.3;;
74483;SDS011;62942;52.462;10.846;2023-05-07T00:55:56;10.3;;;14.3;;
74483;SDS011;62942;52.462;10.846;2023-05-07T00:57:07;10.4;;;13.6;;
74483;SDS011;62942;52.462;10.846;2023-05-07T00:58:16;9.8;;;13;;
74483;SDS011;62942;52.462;10.846;2023-05-07T00:59:16;9.7;;;12.8;;
74483;SDS011;62942;52.462;10.846;2023-05-07T01:00:17;9.7;;;13.6;;
74483;SDS011;62942;52.462;10.846;2023-05-07T01:01:26;10;;;12.5;;
74483;SDS011;62942;52.462;10.846;2023-05-07T01:02:26;9.5;;;12.7;;
74483;SDS011;62942;52.462;10.846;2023-05-07T01:03:36;9.8;;;12.1;;
74483;SDS011;62942;52.462;10.846;2023-05-07T01:04:46;9.8;;;13.1;;
74483;SDS011;62942;52.462;10.846;2023-05-07T01:05:46;9.8;;;13.3;;
74483;SDS011;62942;52.462;10.846;2023-05-07T01:06:56;9.9;;;14;;
74483;SDS011;62942;52.462;10.846;2023-05-07T01:08:06;9.8;;;12.8;;
74483;SDS011;62942;52.462;10.846;2023-05-07T01:09:16;9.6;;;13.6;;
74483;SDS011;62942;52.462;10.846;2023-05-07T01:10:26;10;;;14.1;;
74483;SDS011;62942;52.462;10.846;2023-05-07T01:11:36;9.6;;;12.6;;
74483;SDS011;62942;52.462;10.846;2023-05-07T01:12:37;9.7;;;13.1;;
74483;SDS011;62942;52.462;10.846;2023-05-07T01:13:46;9.7;;;13.2;;
74483;SDS011;62942;52.462;10.846;2023-05-07T01:14:46;9.7;;;12.4;;
74483;SDS011;62942;52.462;10.846;2023-05-07T01:15:46;9.6;;;13.1;;
74483;SDS011;62942;52.462;10.846;2023-05-07T01:16:56;10.2;;;14.1;;
74483;SDS011;62942;52.462;10.846;2023-05-07T01:18:06;9.8;;;13.2;;
74483;SDS011;62942;52.462;10.846;2023-05-07T01:19:16;9.6;;;13.1;;
74483;SDS011;62942;52.462;10.846;2023-05-07T01:20:26;9.9;;;13;;
74483;SDS011;62942;52.462;10.846;2023-05-07T01:21:26;9.6;;;12.9;;
74483;SDS011;62942;52.462;10.846;2023-05-07T01:22:28;9.6;;;12.9;;
74483;SDS011;62942;52.462;10.846;2023-05-07T01:23:36;9.6;;;12.8;;
74483;SDS011;62942;52.462;10.846;2023-05-07T01:24:46;9.5;;;12.6;;
74483;SDS011;62942;52.462;10.846;2023-05-07T01:25:50;9.7;;;12;;
74483;SDS011;62942;52.462;10.846;2023-05-07T01:26:46;9.5;;;12.1;;
74483;SDS011;62942;52.462;10.846;2023-05-07T01:27:46;10.2;;;13;;
74483;SDS011;62942;52.462;10.846;2023-05-07T01:28:56;9.5;;;11.4;;
74483;SDS011;62942;52.462;10.846;2023-05-07T01:30:07;9.2;;;12.1;;
74483;SDS011;62942;52.462;10.846;2023-05-07T01:31:06;9.1;;;11.9;;
74483;SDS011;62942;52.462;10.846;2023-05-07T01:32:06;8.2;;;10.2;;
74483;SDS011;62942;52.462;10.846;2023-05-07T01:33:18;8.5;;;10.4;;
74483;SDS011;62942;52.462;10.846;2023-05-07T01:34:16;8.1;;;9.8;;
74483;SDS011;62942;52.462;10.846;2023-05-07T01:35:18;8.2;;;10;;
74483;SDS011;62942;52.462;10.846;2023-05-07T01:36:26;8.4;;;10.5;;
74483;SDS011;62942;52.462;10.846;2023-05-07T01:37:26;8.6;;;10.4;;
74483;SDS011;62942;52.462;10.846;2023-05-07T01:38:26;8.5;;;10.2;;
74483;SDS011;62942;52.462;10.846;2023-05-07T01:39:37;8.7;;;11;;
74483;SDS011;62942;52.462;10.846;2023-05-07T01:40:36;8.6;;;10.8;;
74483;SDS011;62942;52.462;10.846;2023-05-07T01:41:36;8.3;;;10.3;;
74483;SDS011;62942;52.462;10.846;2023-05-07T01:42:36;7.8;;;9.7;;
74483;SDS011;62942;52.462;10.846;2023-05-07T01:43:36;8.3;;;10.2;;
74483;SDS011;62942;52.462;10.846;2023-05-07T01:44:46;8.2;;;10.2;;
74483;SDS011;62942;52.462;10.846;2023-05-07T01:45:46;7.5;;;9;;
74483;SDS011;62942;52.462;10.846;2023-05-07T01:46:57;7.9;;;9.9;;
74483;SDS011;62942;52.462;10.846;2023-05-07T01:48:07;7.9;;;10.2;;
74483;SDS011;62942;52.462;10.846;2023-05-07T01:49:06;7.6;;;9.3;;
74483;SDS011;62942;52.462;10.846;2023-05-07T01:50:17;7.9;;;9.7;;
74483;SDS011;62942;52.462;10.846;2023-05-07T01:51:16;7.8;;;9.6;;
74483;SDS011;62942;52.462;10.846;2023-05-07T01:52:27;7.5;;;9.2;;
74483;SDS011;62942;52.462;10.846;2023-05-07T01:53:36;7.8;;;9.4;;
74483;SDS011;62942;52.462;10.846;2023-05-07T01:54:46;7.6;;;9.7;;
74483;SDS011;62942;52.462;10.846;2023-05-07T01:55:46;8;;;10.5;;
74483;SDS011;62942;52.462;10.846;2023-05-07T01:56:56;7.8;;;9.8;;
74483;SDS011;62942;52.462;10.846;2023-05-07T01:58:06;7.9;;;9.2;;
74483;SDS011;62942;52.462;10.846;2023-05-07T01:59:06;8.2;;;10.2;;
74483;SDS011;62942;52.462;10.846;2023-05-07T02:00:07;8.5;;;10;;
74483;SDS011;62942;52.462;10.846;2023-05-07T02:01:06;8.3;;;9.7;;
74483;SDS011;62942;52.462;10.846;2023-05-07T02:02:16;8.3;;;9.6;;
74483;SDS011;62942;52.462;10.846;2023-05-07T02:03:26;8.3;;;9.7;;
74483;SDS011;62942;52.462;10.846;2023-05-07T02:04:36;8.8;;;10.7;;
74483;SDS011;62942;52.462;10.846;2023-05-07T02:05:36;8.4;;;10.6;;
74483;SDS011;62942;52.462;10.846;2023-05-07T02:06:36;8;;;9.2;;
74483;SDS011;62942;52.462;10.846;2023-05-07T02:07:36;8.3;;;9.9;;
74483;SDS011;62942;52.462;10.846;2023-05-07T02:08:46;8.3;;;9.9;;
74483;SDS011;62942;52.462;10.846;2023-05-07T02:09:56;7.7;;;8.7;;
74483;SDS011;62942;52.462;10.846;2023-05-07T02:10:56;7.8;;;9.2;;
74483;SDS011;62942;52.462;10.846;2023-05-07T02:12:06;8;;;9.5;;
74483;SDS011;62942;52.462;10.846;2023-05-07T02:13:06;8;;;9.6;;
74483;SDS011;62942;52.462;10.846;2023-05-07T02:14:06;7.7;;;8.6;;
74483;SDS011;62942;52.462;10.846;2023-05-07T02:15:07;8.3;;;9.9;;
74483;SDS011;62942;52.462;10.846;2023-05-07T02:16:16;8;;;9.4;;
74483;SDS011;62942;52.462;10.846;2023-05-07T02:17:26;8.2;;;9.2;;
74483;SDS011;62942;52.462;10.846;2023-05-07T02:18:36;9.7;;;11.9;;
74483;SDS011;62942;52.462;10.846;2023-05-07T02:19:36;9.3;;;10.6;;
74483;SDS011;62942;52.462;10.846;2023-05-07T02:20:36;9.2;;;11.1;;
74483;SDS011;62942;52.462;10.846;2023-05-07T02:21:46;9.5;;;11;;
74483;SDS011;62942;52.462;10.846;2023-05-07T02:22:46;9.6;;;11.8;;
74483;SDS011;62942;52.462;10.846;2023-05-07T02:23:46;9.5;;;10.9;;
74483;SDS011;62942;52.462;10.846;2023-05-07T02:24:56;9.6;;;10.9;;
74483;SDS011;62942;52.462;10.846;2023-05-07T02:25:56;9.6;;;11.1;;
74483;SDS011;62942;52.462;10.846;2023-05-07T02:27:06;9.5;;;11.5;;
74483;SDS011;62942;52.462;10.846;2023-05-07T02:28:16;9.5;;;10.9;;
74483;SDS011;62942;52.462;10.846;2023-05-07T02:29:26;9.7;;;10.9;;
74483;SDS011;62942;52.462;10.846;2023-05-07T02:30:26;9.5;;;11.8;;
74483;SDS011;62942;52.462;10.846;2023-05-07T02:31:26;9.7;;;11.7;;
74483;SDS011;62942;52.462;10.846;2023-05-07T02:32:36;10.1;;;11.7;;
74483;SDS011;62942;52.462;10.846;2023-05-07T02:33:36;10.1;;;11.6;;
74483;SDS011;62942;52.462;10.846;2023-05-07T02:34:46;10.5;;;12.1;;
74483;SDS011;62942;52.462;10.846;2023-05-07T02:35:46;10.2;;;12;;
74483;SDS011;62942;52.462;10.846;2023-05-07T02:36:46;10.2;;;11.5;;
74483;SDS011;62942;52.462;10.846;2023-05-07T02:37:56;10.2;;;12.2;;
74483;SDS011;62942;52.462;10.846;2023-05-07T02:39:06;10;;;11.6;;
74483;SDS011;62942;52.462;10.846;2023-05-07T02:40:07;10.3;;;12;;
74483;SDS011;62942;52.462;10.846;2023-05-07T02:41:06;10;;;11.5;;
74483;SDS011;62942;52.462;10.846;2023-05-07T02:42:16;10.5;;;12.7;;
74483;SDS011;62942;52.462;10.846;2023-05-07T02:43:26;10.6;;;12.7;;
74483;SDS011;62942;52.462;10.846;2023-05-07T02:44:26;10.3;;;11.8;;
74483;SDS011;62942;52.462;10.846;2023-05-07T02:45:36;10.4;;;12;;
74483;SDS011;62942;52.462;10.846;2023-05-07T02:46:36;10.3;;;12.1;;
74483;SDS011;62942;52.462;10.846;2023-05-07T02:47:46;10;;;11.2;;
74483;SDS011;62942;52.462;10.846;2023-05-07T02:48:46;10.4;;;12.4;;
74483;SDS011;62942;52.462;10.846;2023-05-07T02:49:56;10.8;;;12.4;;
74483;SDS011;62942;52.462;10.846;2023-05-07T02:50:56;10.5;;;12;;
74483;SDS011;62942;52.462;10.846;2023-05-07T02:52:06;10.6;;;13;;
74483;SDS011;62942;52.462;10.846;2023-05-07T02:53:06;10.6;;;13.1;;
74483;SDS011;62942;52.462;10.846;2023-05-07T02:54:06;10.5;;;12.2;;
74483;SDS011;62942;52.462;10.846;2023-05-07T02:55:16;10.7;;;13.2;;
74483;SDS011;62942;52.462;10.846;2023-05-07T02:56:16;10.7;;;12.7;;
74483;SDS011;62942;52.462;10.846;2023-05-07T02:57:16;10.7;;;13.4;;
74483;SDS011;62942;52.462;10.846;2023-05-07T02:58:26;10.5;;;12.5;;
74483;SDS011;62942;52.462;10.846;2023-05-07T02:59:26;10.5;;;12.2;;
74483;SDS011;62942;52.462;10.846;2023-05-07T03:00:36;10.8;;;12.2;;
74483;SDS011;62942;52.462;10.846;2023-05-07T03:01:36;10.6;;;12;;
74483;SDS011;62942;52.462;10.846;2023-05-07T03:02:46;10.9;;;13.1;;
74483;SDS011;62942;52.462;10.846;2023-05-07T03:03:46;10.9;;;12.3;;
74483;SDS011;62942;52.462;10.846;2023-05-07T03:04:56;11.4;;;13;;
74483;SDS011;62942;52.462;10.846;2023-05-07T03:05:56;11;;;13.2;;
74483;SDS011;62942;52.462;10.846;2023-05-07T03:06:56;11.2;;;13.4;;
74483;SDS011;62942;52.462;10.846;2023-05-07T03:08:06;10.7;;;12.3;;
74483;SDS011;62942;52.462;10.846;2023-05-07T03:09:06;10.7;;;12.7;;
74483;SDS011;62942;52.462;10.846;2023-05-07T03:10:16;10.7;;;12.6;;
74483;SDS011;62942;52.462;10.846;2023-05-07T03:11:16;11.1;;;13;;
74483;SDS011;62942;52.462;10.846;2023-05-07T03:12:26;10.9;;;12.6;;
74483;SDS011;62942;52.462;10.846;2023-05-07T03:13:26;10.8;;;12.5;;
74483;SDS011;62942;52.462;10.846;2023-05-07T03:14:36;10.8;;;12.9;;
74483;SDS011;62942;52.462;10.846;2023-05-07T03:15:36;10.8;;;12.4;;
74483;SDS011;62942;52.462;10.846;2023-05-07T03:16:36;10.9;;;12.3;;
74483;SDS011;62942;52.462;10.846;2023-05-07T03:17:46;10.9;;;12.6;;
74483;SDS011;62942;52.462;10.846;2023-05-07T03:18:56;11.1;;;13.3;;
74483;SDS011;62942;52.462;10.846;2023-05-07T03:20:07;11.8;;;13.9;;
74483;SDS011;62942;52.462;10.846;2023-05-07T03:21:16;11.6;;;13.2;;
74483;SDS011;62942;52.462;10.846;2023-05-07T03:22:26;11.6;;;13.3;;
74483;SDS011;62942;52.462;10.846;2023-05-07T03:23:36;11;;;12.6;;
74483;SDS011;62942;52.462;10.846;2023-05-07T03:24:46;11.2;;;13.6;;
74483;SDS011;62942;52.462;10.846;2023-05-07T03:25:56;10.9;;;12.3;;
74483;SDS011;62942;52.462;10.846;2023-05-07T03:27:06;11.1;;;12.5;;
74483;SDS011;62942;52.462;10.846;2023-05-07T03:28:06;10.9;;;12.5;;
74483;SDS011;62942;52.462;10.846;2023-05-07T03:29:16;10.5;;;12;;
74483;SDS011;62942;52.462;10.846;2023-05-07T03:30:26;10.8;;;12.5;;
74483;SDS011;62942;52.462;10.846;2023-05-07T03:31:36;10.1;;;11.3;;
74483;SDS011;62942;52.462;10.846;2023-05-07T03:32:46;10;;;11.2;;
74483;SDS011;62942;52.462;10.846;2023-05-07T03:33:50;10;;;11.2;;
74483;SDS011;62942;52.462;10.846;2023-05-07T03:34:46;10;;;11.6;;
74483;SDS011;62942;52.462;10.846;2023-05-07T03:35:56;10.2;;;11.7;;
74483;SDS011;62942;52.462;10.846;2023-05-07T03:37:06;9.8;;;12;;
74483;SDS011;62942;52.462;10.846;2023-05-07T03:38:16;10;;;11.6;;
74483;SDS011;62942;52.462;10.846;2023-05-07T03:39:26;10.1;;;11.8;;
74483;SDS011;62942;52.462;10.846;2023-05-07T03:40:36;9.7;;;11.8;;
74483;SDS011;62942;52.462;10.846;2023-05-07T03:41:46;9.7;;;11.2;;
74483;SDS011;62942;52.462;10.846;2023-05-07T03:42:46;9.6;;;11.1;;
74483;SDS011;62942;52.462;10.846;2023-05-07T03:43:56;9.5;;;10.7;;
74483;SDS011;62942;52.462;10.846;2023-05-07T03:45:06;9.5;;;11.2;;
74483;SDS011;62942;52.462;10.846;2023-05-07T03:46:16;9.5;;;10.8;;
74483;SDS011;62942;52.462;10.846;2023-05-07T03:47:26;9.5;;;10.7;;
74483;SDS011;62942;52.462;10.846;2023-05-07T03:48:26;9.6;;;10.7;;
74483;SDS011;62942;52.462;10.846;2023-05-07T03:49:36;9.2;;;10.8;;
74483;SDS011;62942;52.462;10.846;2023-05-07T03:50:46;8.8;;;10.2;;
74483;SDS011;62942;52.462;10.846;2023-05-07T03:51:46;9;;;10.1;;
74483;SDS011;62942;52.462;10.846;2023-05-07T03:52:46;8.5;;;9.8;;
74483;SDS011;62942;52.462;10.846;2023-05-07T03:53:56;9;;;10.9;;
74483;SDS011;62942;52.462;10.846;2023-05-07T03:54:56;9.1;;;10.7;;
74483;SDS011;62942;52.462;10.846;2023-05-07T03:55:56;8.7;;;10.2;;
74483;SDS011;62942;52.462;10.846;2023-05-07T03:56:56;8.6;;;9.8;;
74483;SDS011;62942;52.462;10.846;2023-05-07T03:58:06;8.8;;;10;;
74483;SDS011;62942;52.462;10.846;2023-05-07T03:59:06;8.4;;;9.9;;
74483;SDS011;62942;52.462;10.846;2023-05-07T04:00:06;8.4;;;9.8;;
74483;SDS011;62942;52.462;10.846;2023-05-07T04:01:06;8.6;;;9.9;;
74483;SDS011;62942;52.462;10.846;2023-05-07T04:02:16;8.1;;;10.1;;
74483;SDS011;62942;52.462;10.846;2023-05-07T04:03:26;8.7;;;10.1;;
74483;SDS011;62942;52.462;10.846;2023-05-07T04:04:26;8.9;;;10.3;;
74483;SDS011;62942;52.462;10.846;2023-05-07T04:05:26;8.3;;;9.4;;
74483;SDS011;62942;52.462;10.846;2023-05-07T04:06:26;9;;;10.8;;
74483;SDS011;62942;52.462;10.846;2023-05-07T04:07:36;8.9;;;10.5;;
74483;SDS011;62942;52.462;10.846;2023-05-07T04:08:46;9.1;;;11.1;;
74483;SDS011;62942;52.462;10.846;2023-05-07T04:09:56;8.8;;;10.2;;
74483;SDS011;62942;52.462;10.846;2023-05-07T04:10:56;9.2;;;10.9;;
74483;SDS011;62942;52.462;10.846;2023-05-07T04:12:06;8.7;;;10.2;;
74483;SDS011;62942;52.462;10.846;2023-05-07T04:13:16;8.8;;;10.6;;
74483;SDS011;62942;52.462;10.846;2023-05-07T04:14:26;9;;;10.6;;
74483;SDS011;62942;52.462;10.846;2023-05-07T04:15:26;9.2;;;10.6;;
74483;SDS011;62942;52.462;10.846;2023-05-07T04:16:26;8.7;;;10.1;;
74483;SDS011;62942;52.462;10.846;2023-05-07T04:17:26;9.6;;;11.1;;
74483;SDS011;62942;52.462;10.846;2023-05-07T04:18:26;9.4;;;11.4;;
74483;SDS011;62942;52.462;10.846;2023-05-07T04:19:36;9.5;;;11.2;;
74483;SDS011;62942;52.462;10.846;2023-05-07T04:20:46;9.1;;;10.2;;
74483;SDS011;62942;52.462;10.846;2023-05-07T04:21:46;9.2;;;10.6;;
74483;SDS011;62942;52.462;10.846;2023-05-07T04:22:56;9.4;;;11.1;;
74483;SDS011;62942;52.462;10.846;2023-05-07T04:24:06;9.3;;;11.5;;
74483;SDS011;62942;52.462;10.846;2023-05-07T04:25:06;9.7;;;11.5;;
74483;SDS011;62942;52.462;10.846;2023-05-07T04:26:16;9.7;;;11.5;;
74483;SDS011;62942;52.462;10.846;2023-05-07T04:27:26;9.5;;;11.3;;
74483;SDS011;62942;52.462;10.846;2023-05-07T04:28:36;9.1;;;10.7;;
74483;SDS011;62942;52.462;10.846;2023-05-07T04:29:46;9.4;;;11.4;;
74483;SDS011;62942;52.462;10.846;2023-05-07T04:30:46;9.8;;;11.8;;
74483;SDS011;62942;52.462;10.846;2023-05-07T04:31:56;9;;;10.7;;
74483;SDS011;62942;52.462;10.846;2023-05-07T04:32:56;9.6;;;11.4;;
74483;SDS011;62942;52.462;10.846;2023-05-07T04:33:56;9.9;;;12.1;;
74483;SDS011;62942;52.462;10.846;2023-05-07T04:35:06;9.6;;;11.7;;
74483;SDS011;62942;52.462;10.846;2023-05-07T04:36:06;9.8;;;12.1;;
74483;SDS011;62942;52.462;10.846;2023-05-07T04:37:06;9.6;;;11.5;;
74483;SDS011;62942;52.462;10.846;2023-05-07T04:38:16;9.9;;;12.2;;
74483;SDS011;62942;52.462;10.846;2023-05-07T04:39:16;10.7;;;12.4;;
74483;SDS011;62942;52.462;10.846;2023-05-07T04:40:26;10.6;;;12.3;;
74483;SDS011;62942;52.462;10.846;2023-05-07T04:41:26;11;;;13.2;;
74483;SDS011;62942;52.462;10.846;2023-05-07T04:42:36;11.1;;;13.1;;
74483;SDS011;62942;52.462;10.846;2023-05-07T04:43:36;11.2;;;12.9;;
74483;SDS011;62942;52.462;10.846;2023-05-07T04:44:46;11.4;;;13.3;;
74483;SDS011;62942;52.462;10.846;2023-05-07T04:45:56;11.5;;;14.1;;
74483;SDS011;62942;52.462;10.846;2023-05-07T04:47:06;11.4;;;13.5;;
74483;SDS011;62942;52.462;10.846;2023-05-07T04:48:06;11.6;;;14.1;;
74483;SDS011;62942;52.462;10.846;2023-05-07T04:49:06;11.3;;;13.1;;
74483;SDS011;62942;52.462;10.846;2023-05-07T04:50:06;11.5;;;13.8;;
74483;SDS011;62942;52.462;10.846;2023-05-07T04:51:16;11.3;;;13.2;;
74483;SDS011;62942;52.462;10.846;2023-05-07T04:52:16;11.2;;;13.3;;
74483;SDS011;62942;52.462;10.846;2023-05-07T04:53:26;11.1;;;13.5;;
74483;SDS011;62942;52.462;10.846;2023-05-07T04:54:26;11.1;;;13.4;;
74483;SDS011;62942;52.462;10.846;2023-05-07T04:55:36;10.7;;;12.3;;
74483;SDS011;62942;52.462;10.846;2023-05-07T04:56:36;11;;;13.4;;
74483;SDS011;62942;52.462;10.846;2023-05-07T04:57:46;10.3;;;12.7;;
74483;SDS011;62942;52.462;10.846;2023-05-07T04:58:46;10.7;;;12.8;;
74483;SDS011;62942;52.462;10.846;2023-05-07T04:59:56;10.5;;;13;;
74483;SDS011;62942;52.462;10.846;2023-05-07T05:01:06;10.6;;;13.5;;
74483;SDS011;62942;52.462;10.846;2023-05-07T05:02:16;10.5;;;12.8;;
74483;SDS011;62942;52.462;10.846;2023-05-07T05:03:26;10.6;;;12.8;;
74483;SDS011;62942;52.462;10.846;2023-05-07T05:04:36;10.7;;;13.4;;
74483;SDS011;62942;52.462;10.846;2023-05-07T05:05:36;11;;;14;;
74483;SDS011;62942;52.462;10.846;2023-05-07T05:06:36;10.5;;;12.6;;
74483;SDS011;62942;52.462;10.846;2023-05-07T05:07:46;11.6;;;14.1;;
74483;SDS011;62942;52.462;10.846;2023-05-07T05:08:56;11.8;;;14.2;;
74483;SDS011;62942;52.462;10.846;2023-05-07T05:10:06;11.2;;;13.6;;
74483;SDS011;62942;52.462;10.846;2023-05-07T05:11:16;11;;;13.3;;
74483;SDS011;62942;52.462;10.846;2023-05-07T05:12:16;11.5;;;13.5;;
74483;SDS011;62942;52.462;10.846;2023-05-07T05:13:16;11.2;;;12.8;;
74483;SDS011;62942;52.462;10.846;2023-05-07T05:14:16;11.3;;;14.3;;
74483;SDS011;62942;52.462;10.846;2023-05-07T05:15:26;11.1;;;13.3;;
74483;SDS011;62942;52.462;10.846;2023-05-07T05:16:36;11.1;;;13.2;;
74483;SDS011;62942;52.462;10.846;2023-05-07T05:17:36;11;;;13.9;;
74483;SDS011;62942;52.462;10.846;2023-05-07T05:18:36;11.2;;;13.3;;
74483;SDS011;62942;52.462;10.846;2023-05-07T05:19:36;10.6;;;12.7;;
74483;SDS011;62942;52.462;10.846;2023-05-07T05:20:36;10.5;;;12.6;;
74483;SDS011;62942;52.462;10.846;2023-05-07T05:21:36;10.1;;;13.2;;
74483;SDS011;62942;52.462;10.846;2023-05-07T05:22:46;10.1;;;12.7;;
74483;SDS011;62942;52.462;10.846;2023-05-07T05:23:56;10.5;;;12.9;;
74483;SDS011;62942;52.462;10.846;2023-05-07T05:25:06;9.8;;;12.1;;
74483;SDS011;62942;52.462;10.846;2023-05-07T05:26:06;10.1;;;12.7;;
74483;SDS011;62942;52.462;10.846;2023-05-07T05:27:16;10.4;;;12.5;;
74483;SDS011;62942;52.462;10.846;2023-05-07T05:28:16;10.6;;;13;;
74483;SDS011;62942;52.462;10.846;2023-05-07T05:29:16;10.7;;;13.2;;
74483;SDS011;62942;52.462;10.846;2023-05-07T05:30:26;10.7;;;13.2;;
74483;SDS011;62942;52.462;10.846;2023-05-07T05:31:26;10.9;;;13.3;;
74483;SDS011;62942;52.462;10.846;2023-05-07T05:32:26;10.9;;;13.7;;
74483;SDS011;62942;52.462;10.846;2023-05-07T05:33:26;10.7;;;12.9;;
74483;SDS011;62942;52.462;10.846;2023-05-07T05:34:26;11;;;14.4;;
74483;SDS011;62942;52.462;10.846;2023-05-07T05:35:26;10.4;;;13;;
74483;SDS011;62942;52.462;10.846;2023-05-07T05:36:36;10.8;;;13.5;;
74483;SDS011;62942;52.462;10.846;2023-05-07T05:37:36;10.6;;;13.6;;
74483;SDS011;62942;52.462;10.846;2023-05-07T05:38:46;10.8;;;13.8;;
74483;SDS011;62942;52.462;10.846;2023-05-07T05:39:46;10.6;;;13.4;;
74483;SDS011;62942;52.462;10.846;2023-05-07T05:40:56;10.8;;;13.6;;
74483;SDS011;62942;52.462;10.846;2023-05-07T05:42:06;10.9;;;14;;
74483;SDS011;62942;52.462;10.846;2023-05-07T05:43:06;10.7;;;13;;
74483;SDS011;62942;52.462;10.846;2023-05-07T05:44:16;10.9;;;13.5;;
74483;SDS011;62942;52.462;10.846;2023-05-07T05:45:16;10.9;;;13.8;;
74483;SDS011;62942;52.462;10.846;2023-05-07T05:46:26;10.5;;;13.1;;
74483;SDS011;62942;52.462;10.846;2023-05-07T05:47:36;10.7;;;12.9;;
74483;SDS011;62942;52.462;10.846;2023-05-07T05:48:36;10.6;;;13.3;;
74483;SDS011;62942;52.462;10.846;2023-05-07T05:49:46;10.7;;;13.1;;
74483;SDS011;62942;52.462;10.846;2023-05-07T05:50:56;10.7;;;13.1;;
74483;SDS011;62942;52.462;10.846;2023-05-07T05:52:06;10.3;;;12.7;;
74483;SDS011;62942;52.462;10.846;2023-05-07T05:53:06;10.5;;;13.3;;
74483;SDS011;62942;52.462;10.846;2023-05-07T05:54:16;10.8;;;13.7;;
74483;SDS011;62942;52.462;10.846;2023-05-07T05:55:26;10.8;;;13;;
74483;SDS011;62942;52.462;10.846;2023-05-07T05:56:26;11.1;;;13.4;;
74483;SDS011;62942;52.462;10.846;2023-05-07T05:57:36;11.1;;;14.4;;
74483;SDS011;62942;52.462;10.846;2023-05-07T05:58:46;11.5;;;14.6;;
74483;SDS011;62942;52.462;10.846;2023-05-07T05:59:46;11.2;;;14.2;;
74483;SDS011;62942;52.462;10.846;2023-05-07T06:00:56;11;;;13.4;;
74483;SDS011;62942;52.462;10.846;2023-05-07T06:02:06;11.2;;;13.3;;
74483;SDS011;62942;52.462;10.846;2023-05-07T06:03:06;11;;;13.4;;
74483;SDS011;62942;52.462;10.846;2023-05-07T06:04:16;10.8;;;13.8;;
74483;SDS011;62942;52.462;10.846;2023-05-07T06:05:26;11;;;13.5;;
74483;SDS011;62942;52.462;10.846;2023-05-07T06:06:26;11.1;;;13.6;;
74483;SDS011;62942;52.462;10.846;2023-05-07T06:07:36;11;;;13.8;;
74483;SDS011;62942;52.462;10.846;2023-05-07T06:08:36;10.3;;;12.8;;
74483;SDS011;62942;52.462;10.846;2023-05-07T06:09:46;10.3;;;13.2;;
74483;SDS011;62942;52.462;10.846;2023-05-07T06:10:46;10.2;;;12.3;;
74483;SDS011;62942;52.462;10.846;2023-05-07T06:11:46;11;;;14.2;;
74483;SDS011;62942;52.462;10.846;2023-05-07T06:12:56;10.3;;;12.5;;
74483;SDS011;62942;52.462;10.846;2023-05-07T06:14:06;10.4;;;12.8;;
74483;SDS011;62942;52.462;10.846;2023-05-07T06:15:06;10.3;;;12.8;;
74483;SDS011;62942;52.462;10.846;2023-05-07T06:16:16;10.7;;;14.9;;
74483;SDS011;62942;52.462;10.846;2023-05-07T06:17:16;10.5;;;12.8;;
74483;SDS011;62942;52.462;10.846;2023-05-07T06:18:26;10.9;;;14;;
74483;SDS011;62942;52.462;10.846;2023-05-07T06:19:36;10.5;;;13.5;;
74483;SDS011;62942;52.462;10.846;2023-05-07T06:20:46;11;;;14.7;;
74483;SDS011;62942;52.462;10.846;2023-05-07T06:21:56;10.9;;;15;;
74483;SDS011;62942;52.462;10.846;2023-05-07T06:22:56;10.4;;;13.6;;
74483;SDS011;62942;52.462;10.846;2023-05-07T06:23:56;10.8;;;13.6;;
74483;SDS011;62942;52.462;10.846;2023-05-07T06:24:56;11.1;;;13.6;;
74483;SDS011;62942;52.462;10.846;2023-05-07T06:25:56;11.1;;;13.6;;
74483;SDS011;62942;52.462;10.846;2023-05-07T06:27:06;10.9;;;13.7;;
74483;SDS011;62942;52.462;10.846;2023-05-07T06:28:16;10.8;;;12.9;;
74483;SDS011;62942;52.462;10.846;2023-05-07T06:29:16;11;;;13.4;;
74483;SDS011;62942;52.462;10.846;2023-05-07T06:30:16;10.9;;;13.6;;
74483;SDS011;62942;52.462;10.846;2023-05-07T06:31:17;10.8;;;15.6;;
74483;SDS011;62942;52.462;10.846;2023-05-07T06:32:26;11;;;14.2;;
74483;SDS011;62942;52.462;10.846;2023-05-07T06:33:26;10.9;;;13;;